sensor_id;sensor_type;location;lat;lon;timestamp;pressure;altitude;pressure_sealevel;temperature;humidity
23427;BME280;41148;45.420;10.952;2023-07-31T00:01:00;100428.94;;;24.74;76.59
23427;BME280;41148;45.420;10.952;2023-07-31T00:03:27;100427.22;;;24.73;76.31
23427;BME280;41148;45.420;10.952;2023-07-31T00:05:56;100425.19;;;24.75;76.27
23427;BME280;41148;45.420;10.952;2023-07-31T00:08:24;100430.66;;;24.75;75.95
23427;BME280;41148;45.420;10.952;2023-07-31T00:10:52;100425.50;;;24.72;75.74
23427;BME280;41148;45.420;10.952;2023-07-31T00:13:20;100427.63;;;24.78;75.68
23427;BME280;41148;45.420;10.952;2023-07-31T00:15:48;100429.50;;;24.77;75.46
23427;BME280;41148;45.420;10.952;2023-07-31T00:18:16;100422.34;;;24.76;75.39
23427;BME280;41148;45.420;10.952;2023-07-31T00:20:43;100428.09;;;24.83;75.25
23427;BME280;41148;45.420;10.952;2023-07-31T00:23:11;100433.53;;;24.83;75.19
23427;BME280;41148;45.420;10.952;2023-07-31T00:25:41;100428.34;;;24.80;75.13
23427;BME280;41148;45.420;10.952;2023-07-31T00:28:08;100440.84;;;24.82;75.24
23427;BME280;41148;45.420;10.952;2023-07-31T00:30:36;100433.09;;;24.78;75.04
23427;BME280;41148;45.420;10.952;2023-07-31T00:33:03;100437.66;;;24.77;74.71
23427;BME280;41148;45.420;10.952;2023-07-31T00:35:31;100449.19;;;24.81;74.83
23427;BME280;41148;45.420;10.952;2023-07-31T00:37:59;100443.28;;;24.76;75.02
23427;BME280;41148;45.420;10.952;2023-07-31T00:40:26;100433.78;;;24.80;74.66
23427;BME280;41148;45.420;10.952;2023-07-31T00:42:54;100439.41;;;24.78;74.79
23427;BME280;41148;45.420;10.952;2023-07-31T00:45:23;100446.72;;;24.78;74.61
23427;BME280;41148;45.420;10.952;2023-07-31T00:47:52;100440.56;;;24.86;74.53
23427;BME280;41148;45.420;10.952;2023-07-31T00:50:22;100442.00;;;24.90;74.71
23427;BME280;41148;45.420;10.952;2023-07-31T00:52:51;100441.13;;;24.89;73.84
23427;BME280;41148;45.420;10.952;2023-07-31T00:55:19;100432.38;;;24.86;73.71
23427;BME280;41148;45.420;10.952;2023-07-31T00:57:49;100428.22;;;24.81;73.84
23427;BME280;41148;45.420;10.952;2023-07-31T01:00:20;100432.38;;;24.86;74.46
23427;BME280;41148;45.420;10.952;2023-07-31T01:02:51;100427.94;;;24.84;74.33
23427;BME280;41148;45.420;10.952;2023-07-31T01:05:27;100432.94;;;24.79;74.20
23427;BME280;41148;45.420;10.952;2023-07-31T01:08:18;100441.84;;;24.81;74.87
23427;BME280;41148;45.420;10.952;2023-07-31T01:10:56;100454.47;;;24.82;75.43
23427;BME280;41148;45.420;10.952;2023-07-31T01:13:26;100447.41;;;24.80;75.93
23427;BME280;41148;45.420;10.952;2023-07-31T01:15:54;100448.41;;;24.69;76.73
23427;BME280;41148;45.420;10.952;2023-07-31T01:18:22;100449.41;;;24.68;76.77
23427;BME280;41148;45.420;10.952;2023-07-31T01:20:57;100452.41;;;24.65;77.54
23427;BME280;41148;45.420;10.952;2023-07-31T01:26:23;100460.56;;;24.55;77.33
23427;BME280;41148;45.420;10.952;2023-07-31T01:31:29;100461.28;;;24.58;77.76
23427;BME280;41148;45.420;10.952;2023-07-31T01:34:00;100453.38;;;24.54;77.53
23427;BME280;41148;45.420;10.952;2023-07-31T01:36:32;100442.03;;;24.49;77.91
23427;BME280;41148;45.420;10.952;2023-07-31T01:39:01;100445.03;;;24.46;78.21
23427;BME280;41148;45.420;10.952;2023-07-31T01:41:30;100434.13;;;24.37;79.46
23427;BME280;41148;45.420;10.952;2023-07-31T01:43:58;100433.53;;;24.33;80.55
23427;BME280;41148;45.420;10.952;2023-07-31T01:46:25;100434.63;;;24.31;81.39
23427;BME280;41148;45.420;10.952;2023-07-31T01:48:53;100428.88;;;24.24;82.17
23427;BME280;41148;45.420;10.952;2023-07-31T01:51:22;100419.53;;;24.17;82.68
23427;BME280;41148;45.420;10.952;2023-07-31T01:53:50;100427.38;;;24.10;83.85
23427;BME280;41148;45.420;10.952;2023-07-31T01:56:18;100426.06;;;24.05;84.12
23427;BME280;41148;45.420;10.952;2023-07-31T01:58:45;100414.38;;;23.93;84.58
23427;BME280;41148;45.420;10.952;2023-07-31T02:01:13;100417.59;;;23.98;83.96
23427;BME280;41148;45.420;10.952;2023-07-31T02:03:40;100412.00;;;23.99;83.52
23427;BME280;41148;45.420;10.952;2023-07-31T02:06:09;100419.16;;;24.01;83.69
23427;BME280;41148;45.420;10.952;2023-07-31T02:08:37;100424.34;;;24.04;83.64
23427;BME280;41148;45.420;10.952;2023-07-31T02:11:05;100414.72;;;23.99;84.51
23427;BME280;41148;45.420;10.952;2023-07-31T02:13:33;100411.13;;;23.99;84.69
23427;BME280;41148;45.420;10.952;2023-07-31T02:16:02;100407.22;;;23.92;84.88
23427;BME280;41148;45.420;10.952;2023-07-31T02:18:30;100413.81;;;23.89;84.79
23427;BME280;41148;45.420;10.952;2023-07-31T02:20:58;100416.19;;;23.83;84.94
23427;BME280;41148;45.420;10.952;2023-07-31T02:23:25;100416.19;;;23.83;86.07
23427;BME280;41148;45.420;10.952;2023-07-31T02:25:53;100421.78;;;23.81;85.43
23427;BME280;41148;45.420;10.952;2023-07-31T02:28:21;100411.75;;;23.82;85.18
23427;BME280;41148;45.420;10.952;2023-07-31T02:30:50;100421.53;;;23.84;84.65
23427;BME280;41148;45.420;10.952;2023-07-31T02:33:18;100418.81;;;23.84;84.23
23427;BME280;41148;45.420;10.952;2023-07-31T02:35:46;100415.63;;;23.79;85.18
23427;BME280;41148;45.420;10.952;2023-07-31T02:38:14;100413.56;;;23.72;85.95
23427;BME280;41148;45.420;10.952;2023-07-31T02:40:41;100405.19;;;23.63;86.64
23427;BME280;41148;45.420;10.952;2023-07-31T02:43:09;100406.97;;;23.53;87.17
23427;BME280;41148;45.420;10.952;2023-07-31T02:45:37;100397.00;;;23.42;87.55
23427;BME280;41148;45.420;10.952;2023-07-31T02:48:04;100399.88;;;23.41;87.32
23427;BME280;41148;45.420;10.952;2023-07-31T02:50:32;100403.97;;;23.35;87.79
23427;BME280;41148;45.420;10.952;2023-07-31T02:53:00;100409.94;;;23.29;87.04
23427;BME280;41148;45.420;10.952;2023-07-31T02:55:28;100403.16;;;23.24;86.67
23427;BME280;41148;45.420;10.952;2023-07-31T02:57:55;100407.16;;;23.20;87.31
23427;BME280;41148;45.420;10.952;2023-07-31T03:00:23;100405.44;;;23.19;87.03
23427;BME280;41148;45.420;10.952;2023-07-31T03:02:54;100411.09;;;23.16;87.75
23427;BME280;41148;45.420;10.952;2023-07-31T03:05:23;100412.38;;;23.11;87.66
23427;BME280;41148;45.420;10.952;2023-07-31T03:07:50;100418.94;;;23.09;88.09
23427;BME280;41148;45.420;10.952;2023-07-31T03:10:18;100405.00;;;23.02;87.76
23427;BME280;41148;45.420;10.952;2023-07-31T03:12:48;100414.00;;;23.03;87.91
23427;BME280;41148;45.420;10.952;2023-07-31T03:15:16;100421.56;;;22.99;88.08
23427;BME280;41148;45.420;10.952;2023-07-31T03:17:44;100428.44;;;23.03;88.06
23427;BME280;41148;45.420;10.952;2023-07-31T03:20:12;100419.72;;;23.00;88.15
23427;BME280;41148;45.420;10.952;2023-07-31T03:22:42;100422.28;;;23.01;87.57
23427;BME280;41148;45.420;10.952;2023-07-31T03:25:11;100423.75;;;23.05;88.29
23427;BME280;41148;45.420;10.952;2023-07-31T03:27:42;100428.59;;;23.02;88.46
23427;BME280;41148;45.420;10.952;2023-07-31T03:30:10;100431.91;;;23.05;88.26
23427;BME280;41148;45.420;10.952;2023-07-31T03:32:38;100430.44;;;23.01;88.34
23427;BME280;41148;45.420;10.952;2023-07-31T03:35:06;100429.00;;;22.97;88.20
23427;BME280;41148;45.420;10.952;2023-07-31T03:37:34;100430.94;;;22.95;88.13
23427;BME280;41148;45.420;10.952;2023-07-31T03:40:02;100426.28;;;22.97;87.89
23427;BME280;41148;45.420;10.952;2023-07-31T03:42:31;100429.59;;;23.01;87.64
23427;BME280;41148;45.420;10.952;2023-07-31T03:44:59;100418.22;;;22.96;87.97
23427;BME280;41148;45.420;10.952;2023-07-31T03:47:27;100431.22;;;22.92;88.19
23427;BME280;41148;45.420;10.952;2023-07-31T03:49:54;100435.00;;;23.01;88.32
23427;BME280;41148;45.420;10.952;2023-07-31T03:52:22;100439.31;;;23.03;88.38
23427;BME280;41148;45.420;10.952;2023-07-31T03:54:50;100438.47;;;23.03;87.38
23427;BME280;41148;45.420;10.952;2023-07-31T03:57:17;100428.09;;;23.08;87.02
23427;BME280;41148;45.420;10.952;2023-07-31T03:59:45;100411.69;;;22.98;87.37
23427;BME280;41148;45.420;10.952;2023-07-31T04:02:12;100420.94;;;23.07;86.43
23427;BME280;41148;45.420;10.952;2023-07-31T04:04:41;100423.03;;;23.03;86.28
23427;BME280;41148;45.420;10.952;2023-07-31T04:07:09;100417.66;;;23.13;85.71
23427;BME280;41148;45.420;10.952;2023-07-31T04:09:36;100423.84;;;23.15;85.39
23427;BME280;41148;45.420;10.952;2023-07-31T04:12:04;100425.69;;;23.14;85.38
23427;BME280;41148;45.420;10.952;2023-07-31T04:14:32;100415.44;;;23.18;84.68
23427;BME280;41148;45.420;10.952;2023-07-31T04:17:00;100421.47;;;23.22;85.08
23427;BME280;41148;45.420;10.952;2023-07-31T04:19:28;100423.47;;;23.20;84.56
23427;BME280;41148;45.420;10.952;2023-07-31T04:21:56;100434.47;;;23.18;85.41
23427;BME280;41148;45.420;10.952;2023-07-31T04:24:24;100441.84;;;23.16;85.35
23427;BME280;41148;45.420;10.952;2023-07-31T04:26:53;100442.84;;;23.15;85.43
23427;BME280;41148;45.420;10.952;2023-07-31T04:29:21;100439.13;;;23.16;85.44
23427;BME280;41148;45.420;10.952;2023-07-31T04:31:49;100439.53;;;23.11;85.42
23427;BME280;41148;45.420;10.952;2023-07-31T04:34:16;100441.53;;;23.09;86.16
23427;BME280;41148;45.420;10.952;2023-07-31T04:36:44;100438.28;;;23.16;85.86
23427;BME280;41148;45.420;10.952;2023-07-31T04:39:11;100434.69;;;23.15;86.30
23427;BME280;41148;45.420;10.952;2023-07-31T04:41:40;100429.41;;;23.13;85.76
23427;BME280;41148;45.420;10.952;2023-07-31T04:44:07;100437.78;;;23.22;85.07
23427;BME280;41148;45.420;10.952;2023-07-31T04:46:35;100446.91;;;23.21;85.49
23427;BME280;41148;45.420;10.952;2023-07-31T04:49:04;100451.75;;;23.17;85.65
23427;BME280;41148;45.420;10.952;2023-07-31T04:51:31;100440.28;;;23.13;86.32
23427;BME280;41148;45.420;10.952;2023-07-31T04:53:59;100436.91;;;23.21;86.05
23427;BME280;41148;45.420;10.952;2023-07-31T04:56:27;100431.88;;;23.17;86.02
23427;BME280;41148;45.420;10.952;2023-07-31T04:58:54;100436.31;;;23.18;86.99
23427;BME280;41148;45.420;10.952;2023-07-31T05:01:23;100435.47;;;23.17;86.75
23427;BME280;41148;45.420;10.952;2023-07-31T05:03:51;100430.03;;;23.17;87.19
23427;BME280;41148;45.420;10.952;2023-07-31T05:06:19;100432.59;;;23.19;87.45
23427;BME280;41148;45.420;10.952;2023-07-31T05:08:48;100433.59;;;23.18;87.17
23427;BME280;41148;45.420;10.952;2023-07-31T05:11:15;100442.34;;;23.21;86.98
23427;BME280;41148;45.420;10.952;2023-07-31T05:13:43;100437.63;;;23.23;86.92
23427;BME280;41148;45.420;10.952;2023-07-31T05:16:10;100429.63;;;23.22;87.12
23427;BME280;41148;45.420;10.952;2023-07-31T05:18:38;100436.28;;;23.29;86.90
23427;BME280;41148;45.420;10.952;2023-07-31T05:21:06;100439.84;;;23.29;86.76
23427;BME280;41148;45.420;10.952;2023-07-31T05:23:33;100451.94;;;23.36;86.53
23427;BME280;41148;45.420;10.952;2023-07-31T05:26:05;100451.94;;;23.36;86.44
23427;BME280;41148;45.420;10.952;2023-07-31T05:28:34;100457.47;;;23.35;86.26
23427;BME280;41148;45.420;10.952;2023-07-31T05:31:03;100458.09;;;23.38;86.55
23427;BME280;41148;45.420;10.952;2023-07-31T05:33:31;100454.50;;;23.38;85.86
23427;BME280;41148;45.420;10.952;2023-07-31T05:35:59;100468.31;;;23.46;86.42
23427;BME280;41148;45.420;10.952;2023-07-31T05:38:26;100468.91;;;23.50;85.31
23427;BME280;41148;45.420;10.952;2023-07-31T05:40:54;100461.75;;;23.49;85.42
23427;BME280;41148;45.420;10.952;2023-07-31T05:43:21;100460.75;;;23.50;86.59
23427;BME280;41148;45.420;10.952;2023-07-31T05:45:51;100465.44;;;23.59;86.40
23427;BME280;41148;45.420;10.952;2023-07-31T05:48:18;100460.25;;;23.56;85.97
23427;BME280;41148;45.420;10.952;2023-07-31T05:50:46;100463.06;;;23.54;86.34
23427;BME280;41148;45.420;10.952;2023-07-31T05:53:13;100468.06;;;23.49;87.76
23427;BME280;41148;45.420;10.952;2023-07-31T05:55:42;100465.34;;;23.49;87.82
23427;BME280;41148;45.420;10.952;2023-07-31T05:58:10;100462.53;;;23.39;88.41
23427;BME280;41148;45.420;10.952;2023-07-31T06:00:38;100469.69;;;23.40;87.55
23427;BME280;41148;45.420;10.952;2023-07-31T06:03:05;100473.00;;;23.44;87.27
23427;BME280;41148;45.420;10.952;2023-07-31T06:05:33;100465.34;;;23.49;86.77
23427;BME280;41148;45.420;10.952;2023-07-31T06:08:01;100469.19;;;23.47;86.02
23427;BME280;41148;45.420;10.952;2023-07-31T06:10:29;100483.22;;;23.52;86.38
23427;BME280;41148;45.420;10.952;2023-07-31T06:12:57;100479.13;;;23.57;87.09
23427;BME280;41148;45.420;10.952;2023-07-31T06:15:25;100478.53;;;23.65;85.86
23427;BME280;41148;45.420;10.952;2023-07-31T06:17:52;100468.56;;;23.75;85.96
23427;BME280;41148;45.420;10.952;2023-07-31T06:20:21;100472.06;;;23.87;85.35
23427;BME280;41148;45.420;10.952;2023-07-31T06:22:50;100481.88;;;23.99;84.47
23427;BME280;41148;45.420;10.952;2023-07-31T06:25:17;100484.53;;;24.10;83.72
23427;BME280;41148;45.420;10.952;2023-07-31T06:27:45;100491.50;;;24.24;83.26
23427;BME280;41148;45.420;10.952;2023-07-31T06:30:13;100495.50;;;24.30;82.97
23427;BME280;41148;45.420;10.952;2023-07-31T06:32:41;100486.84;;;24.36;83.39
23427;BME280;41148;45.420;10.952;2023-07-31T06:35:09;100487.75;;;24.46;84.30
23427;BME280;41148;45.420;10.952;2023-07-31T06:37:37;100491.81;;;24.51;82.76
23427;BME280;41148;45.420;10.952;2023-07-31T06:40:08;100494.28;;;24.64;82.48
23427;BME280;41148;45.420;10.952;2023-07-31T06:42:36;100485.28;;;24.73;81.60
23427;BME280;41148;45.420;10.952;2023-07-31T06:45:04;100499.78;;;24.83;79.73
23427;BME280;41148;45.420;10.952;2023-07-31T06:47:35;100498.56;;;25.07;78.42
23427;BME280;41148;45.420;10.952;2023-07-31T06:50:03;100491.41;;;25.16;76.80
23427;BME280;41148;45.420;10.952;2023-07-31T06:52:31;100497.31;;;25.11;77.00
23427;BME280;41148;45.420;10.952;2023-07-31T06:55:02;100492.75;;;25.31;76.13
23427;BME280;41148;45.420;10.952;2023-07-31T06:57:31;100492.44;;;25.44;74.71
23427;BME280;41148;45.420;10.952;2023-07-31T06:59:59;100494.16;;;25.45;74.31
23427;BME280;41148;45.420;10.952;2023-07-31T07:02:26;100492.91;;;25.58;73.90
23427;BME280;41148;45.420;10.952;2023-07-31T07:04:54;100488.88;;;25.72;72.71
23427;BME280;41148;45.420;10.952;2023-07-31T07:07:22;100497.19;;;25.90;69.19
23427;BME280;41148;45.420;10.952;2023-07-31T07:09:49;100492.88;;;26.07;68.36
23427;BME280;41148;45.420;10.952;2023-07-31T07:12:17;100498.03;;;26.10;69.22
23427;BME280;41148;45.420;10.952;2023-07-31T07:14:45;100487.22;;;26.18;69.17
23427;BME280;41148;45.420;10.952;2023-07-31T07:17:16;100491.19;;;26.33;66.40
23427;BME280;41148;45.420;10.952;2023-07-31T07:19:43;100486.28;;;26.46;65.14
23427;BME280;41148;45.420;10.952;2023-07-31T07:22:13;100501.06;;;26.53;65.83
23427;BME280;41148;45.420;10.952;2023-07-31T07:24:41;100500.41;;;26.22;68.04
23427;BME280;41148;45.420;10.952;2023-07-31T07:27:08;100498.53;;;26.23;66.74
23427;BME280;41148;45.420;10.952;2023-07-31T07:29:37;100496.56;;;26.25;66.20
23427;BME280;41148;45.420;10.952;2023-07-31T07:32:06;100497.81;;;26.40;65.99
23427;BME280;41148;45.420;10.952;2023-07-31T07:34:34;100495.50;;;26.45;65.63
23427;BME280;41148;45.420;10.952;2023-07-31T07:37:02;100491.84;;;26.64;64.73
23427;BME280;41148;45.420;10.952;2023-07-31T07:39:29;100498.09;;;26.74;63.44
23427;BME280;41148;45.420;10.952;2023-07-31T07:41:57;100487.50;;;26.62;62.97
23427;BME280;41148;45.420;10.952;2023-07-31T07:44:24;100490.25;;;26.62;63.40
23427;BME280;41148;45.420;10.952;2023-07-31T07:46:52;100485.25;;;26.57;63.69
23427;BME280;41148;45.420;10.952;2023-07-31T07:49:20;100489.00;;;26.56;63.63
23427;BME280;41148;45.420;10.952;2023-07-31T07:51:49;100488.94;;;26.66;63.93
23427;BME280;41148;45.420;10.952;2023-07-31T07:54:17;100491.31;;;26.78;63.30
23427;BME280;41148;45.420;10.952;2023-07-31T07:56:45;100493.84;;;26.90;62.89
23427;BME280;41148;45.420;10.952;2023-07-31T07:59:13;100488.16;;;27.01;63.01
23427;BME280;41148;45.420;10.952;2023-07-31T08:01:41;100489.31;;;26.98;63.68
23427;BME280;41148;45.420;10.952;2023-07-31T08:04:09;100497.38;;;27.00;64.56
23427;BME280;41148;45.420;10.952;2023-07-31T08:06:37;100488.78;;;26.95;64.93
23427;BME280;41148;45.420;10.952;2023-07-31T08:09:05;100488.63;;;26.96;63.55
23427;BME280;41148;45.420;10.952;2023-07-31T08:11:34;100485.38;;;27.10;63.09
23427;BME280;41148;45.420;10.952;2023-07-31T08:14:02;100477.38;;;27.27;62.79
23427;BME280;41148;45.420;10.952;2023-07-31T08:16:30;100483.44;;;27.21;63.18
23427;BME280;41148;45.420;10.952;2023-07-31T08:18:58;100483.38;;;27.30;62.12
23427;BME280;41148;45.420;10.952;2023-07-31T08:21:25;100486.09;;;27.30;63.14
23427;BME280;41148;45.420;10.952;2023-07-31T08:23:54;100488.56;;;27.33;61.86
23427;BME280;41148;45.420;10.952;2023-07-31T08:26:22;100495.41;;;27.37;62.68
23427;BME280;41148;45.420;10.952;2023-07-31T08:28:49;100495.97;;;27.77;62.56
23427;BME280;41148;45.420;10.952;2023-07-31T08:31:17;100487.34;;;28.15;59.77
23427;BME280;41148;45.420;10.952;2023-07-31T08:33:46;100488.22;;;28.68;57.44
23427;BME280;41148;45.420;10.952;2023-07-31T08:36:14;100494.69;;;29.76;53.80
23427;BME280;41148;45.420;10.952;2023-07-31T08:38:42;100487.41;;;30.87;49.70
23427;BME280;41148;45.420;10.952;2023-07-31T08:41:10;100489.63;;;30.44;51.22
23427;BME280;41148;45.420;10.952;2023-07-31T08:43:38;100491.22;;;29.98;50.16
23427;BME280;41148;45.420;10.952;2023-07-31T08:46:06;100496.19;;;30.19;45.94
23427;BME280;41148;45.420;10.952;2023-07-31T08:48:35;100497.94;;;29.79;46.85
23427;BME280;41148;45.420;10.952;2023-07-31T08:51:04;100497.44;;;29.76;48.12
23427;BME280;41148;45.420;10.952;2023-07-31T08:53:33;100494.69;;;29.84;46.76
23427;BME280;41148;45.420;10.952;2023-07-31T08:56:03;100501.03;;;29.84;46.52
23427;BME280;41148;45.420;10.952;2023-07-31T08:58:35;100494.97;;;31.24;42.71
23427;BME280;41148;45.420;10.952;2023-07-31T09:01:04;100481.19;;;32.16;41.30
23427;BME280;41148;45.420;10.952;2023-07-31T09:03:36;100488.69;;;32.22;40.69
23427;BME280;41148;45.420;10.952;2023-07-31T09:06:07;100488.72;;;32.96;38.76
23427;BME280;41148;45.420;10.952;2023-07-31T09:08:35;100487.28;;;33.51;37.59
23427;BME280;41148;45.420;10.952;2023-07-31T09:11:03;100485.00;;;34.32;36.42
23427;BME280;41148;45.420;10.952;2023-07-31T09:13:32;100474.34;;;34.63;35.68
23427;BME280;41148;45.420;10.952;2023-07-31T09:16:00;100484.38;;;35.12;34.24
23427;BME280;41148;45.420;10.952;2023-07-31T09:18:27;100464.56;;;35.02;33.92
23427;BME280;41148;45.420;10.952;2023-07-31T09:21:05;100453.13;;;34.70;34.92
23427;BME280;41148;45.420;10.952;2023-07-31T09:23:44;100466.25;;;34.96;34.01
23427;BME280;41148;45.420;10.952;2023-07-31T09:26:29;100454.63;;;34.73;34.54
23427;BME280;41148;45.420;10.952;2023-07-31T09:29:01;100455.72;;;35.33;33.88
23427;BME280;41148;45.420;10.952;2023-07-31T09:31:41;100453.22;;;34.49;34.45
23427;BME280;41148;45.420;10.952;2023-07-31T09:34:09;100457.56;;;34.30;34.99
23427;BME280;41148;45.420;10.952;2023-07-31T09:36:49;100444.41;;;34.73;34.62
23427;BME280;41148;45.420;10.952;2023-07-31T09:39:17;100442.97;;;34.43;35.33
23427;BME280;41148;45.420;10.952;2023-07-31T09:41:53;100442.09;;;34.84;34.02
23427;BME280;41148;45.420;10.952;2023-07-31T09:44:21;100450.03;;;34.18;35.29
23427;BME280;41148;45.420;10.952;2023-07-31T09:46:48;100448.53;;;33.44;36.26
23427;BME280;41148;45.420;10.952;2023-07-31T09:49:17;100456.22;;;31.57;40.01
23427;BME280;41148;45.420;10.952;2023-07-31T09:51:44;100452.22;;;30.35;42.60
23427;BME280;41148;45.420;10.952;2023-07-31T09:54:13;100451.25;;;30.59;43.26
23427;BME280;41148;45.420;10.952;2023-07-31T09:56:50;100456.06;;;29.85;45.52
23427;BME280;41148;45.420;10.952;2023-07-31T09:59:19;100459.97;;;29.91;45.03
23427;BME280;41148;45.420;10.952;2023-07-31T10:01:52;100457.44;;;29.57;45.34
23427;BME280;41148;45.420;10.952;2023-07-31T10:04:27;100467.56;;;29.64;45.22
23427;BME280;41148;45.420;10.952;2023-07-31T10:06:55;100461.31;;;29.30;46.09
23427;BME280;41148;45.420;10.952;2023-07-31T10:09:25;100459.28;;;29.40;46.28
23427;BME280;41148;45.420;10.952;2023-07-31T10:12:00;100449.88;;;29.59;46.08
23427;BME280;41148;45.420;10.952;2023-07-31T10:14:30;100444.72;;;29.48;47.30
23427;BME280;41148;45.420;10.952;2023-07-31T10:16:58;100450.06;;;29.57;46.60
23427;BME280;41148;45.420;10.952;2023-07-31T10:19:27;100443.53;;;29.50;46.58
23427;BME280;41148;45.420;10.952;2023-07-31T10:21:57;100444.06;;;29.54;46.66
23427;BME280;41148;45.420;10.952;2023-07-31T10:24:26;100439.41;;;29.62;46.00
23427;BME280;41148;45.420;10.952;2023-07-31T10:26:58;100444.91;;;29.71;44.73
23427;BME280;41148;45.420;10.952;2023-07-31T10:29:28;100437.69;;;29.61;45.80
23427;BME280;41148;45.420;10.952;2023-07-31T10:31:58;100434.44;;;29.82;45.39
23427;BME280;41148;45.420;10.952;2023-07-31T10:34:26;100430.50;;;29.52;45.85
23427;BME280;41148;45.420;10.952;2023-07-31T10:37:20;100437.03;;;29.68;45.04
23427;BME280;41148;45.420;10.952;2023-07-31T10:42:37;100435.94;;;29.28;46.01
23427;BME280;41148;45.420;10.952;2023-07-31T10:45:10;100437.81;;;29.19;46.43
23427;BME280;41148;45.420;10.952;2023-07-31T10:47:44;100428.59;;;29.28;46.27
23427;BME280;41148;45.420;10.952;2023-07-31T10:50:19;100438.88;;;29.26;46.00
23427;BME280;41148;45.420;10.952;2023-07-31T10:52:51;100435.38;;;29.00;47.87
23427;BME280;41148;45.420;10.952;2023-07-31T10:55:42;100428.22;;;29.07;47.92
23427;BME280;41148;45.420;10.952;2023-07-31T10:58:12;100411.09;;;29.29;47.51
23427;BME280;41148;45.420;10.952;2023-07-31T11:00:42;100429.94;;;29.32;48.32
23427;BME280;41148;45.420;10.952;2023-07-31T11:03:13;100426.22;;;29.58;46.62
23427;BME280;41148;45.420;10.952;2023-07-31T11:08:17;100418.97;;;29.32;46.92
23427;BME280;41148;45.420;10.952;2023-07-31T11:10:47;100428.91;;;29.33;47.09
23427;BME280;41148;45.420;10.952;2023-07-31T11:13:15;100419.88;;;29.49;46.74
23427;BME280;41148;45.420;10.952;2023-07-31T11:15:43;100430.00;;;29.57;46.21
23427;BME280;41148;45.420;10.952;2023-07-31T11:18:10;100437.19;;;29.58;46.42
23427;BME280;41148;45.420;10.952;2023-07-31T11:20:39;100433.25;;;29.60;46.84
23427;BME280;41148;45.420;10.952;2023-07-31T11:23:08;100425.00;;;29.85;46.39
23427;BME280;41148;45.420;10.952;2023-07-31T11:25:37;100427.75;;;29.69;47.18
23427;BME280;41148;45.420;10.952;2023-07-31T11:28:06;100425.72;;;29.54;47.88
23427;BME280;41148;45.420;10.952;2023-07-31T11:30:35;100423.59;;;29.40;47.71
23427;BME280;41148;45.420;10.952;2023-07-31T11:33:04;100416.28;;;29.57;47.82
23427;BME280;41148;45.420;10.952;2023-07-31T11:35:34;100421.22;;;29.86;46.39
23427;BME280;41148;45.420;10.952;2023-07-31T11:38:02;100413.16;;;29.60;46.77
23427;BME280;41148;45.420;10.952;2023-07-31T11:40:30;100416.59;;;29.70;47.03
23427;BME280;41148;45.420;10.952;2023-07-31T11:43:03;100404.75;;;29.78;47.07
23427;BME280;41148;45.420;10.952;2023-07-31T11:45:31;100410.78;;;29.65;46.76
23427;BME280;41148;45.420;10.952;2023-07-31T11:48:01;100398.06;;;29.31;47.70
23427;BME280;41148;45.420;10.952;2023-07-31T11:50:33;100404.94;;;29.60;47.24
23427;BME280;41148;45.420;10.952;2023-07-31T11:53:04;100394.09;;;29.42;47.88
23427;BME280;41148;45.420;10.952;2023-07-31T11:55:39;100391.88;;;29.62;47.41
23427;BME280;41148;45.420;10.952;2023-07-31T11:58:11;100394.63;;;29.62;47.94
23427;BME280;41148;45.420;10.952;2023-07-31T12:00:39;100395.84;;;29.27;48.39
23427;BME280;41148;45.420;10.952;2023-07-31T12:03:06;100393.25;;;29.42;48.58
23427;BME280;41148;45.420;10.952;2023-07-31T12:05:34;100389.00;;;29.63;48.72
23427;BME280;41148;45.420;10.952;2023-07-31T12:08:09;100382.97;;;29.44;48.81
23427;BME280;41148;45.420;10.952;2023-07-31T12:10:38;100386.91;;;29.25;50.08
23427;BME280;41148;45.420;10.952;2023-07-31T12:13:12;100375.59;;;29.28;49.51
23427;BME280;41148;45.420;10.952;2023-07-31T12:15:48;100370.13;;;29.52;47.94
23427;BME280;41148;45.420;10.952;2023-07-31T12:18:19;100369.06;;;29.70;46.99
23427;BME280;41148;45.420;10.952;2023-07-31T12:20:49;100371.84;;;29.53;46.08
23427;BME280;41148;45.420;10.952;2023-07-31T12:23:28;100370.97;;;29.28;46.52
23427;BME280;41148;45.420;10.952;2023-07-31T12:26:11;100369.44;;;29.26;45.20
23427;BME280;41148;45.420;10.952;2023-07-31T12:28:47;100353.97;;;29.41;45.83
23427;BME280;41148;45.420;10.952;2023-07-31T12:31:20;100343.19;;;29.64;45.98
23427;BME280;41148;45.420;10.952;2023-07-31T12:33:50;100335.25;;;29.77;45.88
23427;BME280;41148;45.420;10.952;2023-07-31T12:36:21;100334.22;;;29.70;46.09
23427;BME280;41148;45.420;10.952;2023-07-31T12:38:58;100347.97;;;29.70;47.22
23427;BME280;41148;45.420;10.952;2023-07-31T12:41:26;100333.16;;;29.87;45.38
23427;BME280;41148;45.420;10.952;2023-07-31T12:43:54;100330.88;;;29.99;44.85
23427;BME280;41148;45.420;10.952;2023-07-31T12:46:21;100320.56;;;30.01;44.40
23427;BME280;41148;45.420;10.952;2023-07-31T12:48:55;100314.03;;;30.10;43.32
23427;BME280;41148;45.420;10.952;2023-07-31T12:51:22;100319.97;;;29.83;43.51
23427;BME280;41148;45.420;10.952;2023-07-31T12:53:50;100312.63;;;29.75;43.56
23427;BME280;41148;45.420;10.952;2023-07-31T12:56:18;100323.78;;;29.66;45.07
23427;BME280;41148;45.420;10.952;2023-07-31T12:58:45;100319.84;;;29.60;44.93
23427;BME280;41148;45.420;10.952;2023-07-31T13:01:13;100308.88;;;29.52;43.60